Latest Weather Observations for Bombala AWS

IDN60801

Issued at 10:32 am EST Monday 16 September 2019 (issued every 10 minutes, with the page automatically refreshed every 10 minutes)

About weather observations | Map of weather stations | Latest weather observations for NSW | Other Formats
Station Details ID: 070328 Name: BOMBALA AWS Lat: -37.00 Lon: 149.23 Height: 760.5 m
Data from the previous 72 hours. | See also: Recent months at Bombala AWS
Date/Time
EST
Temp
°C
App
Temp
°C
Dew
Point
°C
Rel
Hum
%
Delta-T
°C
Wind Press
QNH
hPa
Press
MSL
hPa
Rain since
9am
mm
Dir  Spd
km/h
Gust
km/h
Spd
kts
Gust
kts
16/10:30am 5.6 1.6 4.9 95 0.3 SW 15 22 8 12 1017.4 1017.4 3.0
16/10:00am 5.2 0.1 4.3 94 0.4 SW 20 24 11 13 1017.6 1017.6 2.6
16/09:30am 5.3 2.0 4.4 94 0.4 SW 11 17 6 9 1017.5 1017.5 1.4
16/09:00am 5.9 -1.6 3.2 83 1.2 SW 32 44 17 24 1017.3 1017.3 0.0
16/08:30am 7.8 1.7 4.9 82 1.3 SW 26 35 14 19 1016.2 1016.2 0.0
16/08:00am 8.4 2.9 7.5 94 0.4 S 26 33 14 18 1015.8 1015.7 0.0
16/07:30am 8.3 4.1 8.3 100 0.0 SSE 20 26 11 14 1014.8 1014.7 0.0
16/07:00am 9.5 5.9 8.3 92 0.6 SE 17 22 9 12 1015.0 1015.0 0.0
16/06:30am 9.4 6.7 7.5 88 0.9 SE 11 17 6 9 1015.2 1015.2 0.0
16/06:00am 10.0 7.5 6.7 80 1.6 SE 9 13 5 7 1014.5 1014.4 0.0
16/05:30am 10.3 5.3 6.3 76 1.9 SSE 22 30 12 16 1014.3 1014.2 0.0
16/05:00am 13.7 10.2 5.6 58 4.0 NW 13 17 7 9 1013.7 1013.6 0.0
16/04:30am 13.8 9.9 5.4 57 4.1 NW 15 19 8 10 1013.4 1013.3 0.0
16/04:00am 14.1 9.2 5.2 55 4.4 WNW 20 26 11 14 1012.8 1012.7 0.0
16/03:30am 13.4 8.1 4.8 56 4.2 WNW 22 28 12 15 1012.7 1012.6 0.0
16/03:00am 11.4 7.7 4.4 62 3.3 NW 13 19 7 10 1012.8 1012.7 0.0
16/02:30am 9.8 6.6 0.7 53 3.9 NNW 7 11 4 6 1013.2 1013.1 0.0
16/02:00am 12.5 9.3 0.9 45 5.1 N 7 13 4 7 1013.8 1013.8 0.0
16/01:30am 10.4 6.0 0.2 49 4.3 NNW 13 17 7 9 1014.4 1014.3 0.0
16/01:00am 9.3 3.6 0.7 55 3.7 NNW 20 22 11 12 1014.5 1014.4 0.0
16/12:30am 9.1 4.5 1.3 58 3.4 NW 15 19 8 10 1015.2 1015.2 0.0
16/12:00am 11.0 5.9 1.0 50 4.4 NW 17 22 9 12 1015.8 1015.7 0.0
 
Date/Time
EST
Temp
°C
App
Temp
°C
Dew
Point
°C
Rel
Hum
%
Delta-T
°C
Wind Press
QNH
hPa
Press
MSL
hPa
Rain since
9am
mm
Dir  Spd
km/h
Gust
km/h
Spd
kts
Gust
kts
15/11:30pm 11.4 7.1 1.1 49 4.5 WNW 13 17 7 9 1016.4 1016.4 0.0
15/11:00pm 13.0 8.4 1.7 46 5.1 NW 15 19 8 10 1016.6 1016.6 0.0
15/10:30pm 14.3 8.8 1.6 42 5.8 NW 20 26 11 14 1016.4 1016.4 0.0
15/10:00pm 15.0 9.7 1.9 41 6.0 WNW 19 28 10 15 1017.0 1016.9 0.0
15/09:30pm 13.3 7.8 1.9 46 5.2 W 20 28 11 15 1017.4 1017.4 0.0
15/09:00pm 14.4 8.1 1.7 42 5.8 W 24 28 13 15 1016.9 1016.8 0.0
15/08:30pm 15.2 7.7 1.4 39 6.3 W 30 41 16 22 1017.1 1017.0 0.0
15/08:00pm 15.3 7.5 1.8 40 6.2 WNW 32 43 17 23 1017.4 1017.4 0.0
15/07:30pm 16.3 7.8 1.2 36 6.9 WNW 35 44 19 24 1017.1 1017.0 0.0
15/07:00pm 16.6 8.3 1.9 37 6.8 WNW 35 43 19 23 1017.0 1016.9 0.0
15/06:30pm 16.4 9.2 3.1 41 6.3 WNW 30 43 16 23 1016.8 1016.7 0.0
15/06:00pm 16.9 9.4 4.3 43 6.2 WNW 33 48 18 26 1016.8 1016.7 0.0
15/05:50pm 16.8 10.3 4.5 44 6.0 WNW 28 48 15 26 1016.6 1016.6 0.0
15/05:30pm 16.7 12.7 5.0 46 5.8 WNW 15 26 8 14 1016.9 1016.8 0.0
15/05:00pm 16.3 12.5 5.6 49 5.4 WNW 15 19 8 10 1016.9 1016.8 0.0
15/04:30pm 17.1 10.7 5.1 45 6.0 WNW 28 37 15 20 1017.1 1017.0 0.0
15/04:00pm 16.9 11.0 5.8 48 5.6 WNW 26 35 14 19 1017.2 1017.2 0.0
15/03:30pm 17.7 10.5 5.0 43 6.3 WNW 32 48 17 26 1017.2 1017.2 0.0
15/03:26pm 17.8 11.4 5.1 43 6.4 WNW 28 48 15 26 1017.2 1017.2 0.0
15/03:00pm 18.3 11.5 5.2 42 6.6 WNW 30 39 16 21 1017.4 1017.4 0.0
15/02:30pm 18.8 12.5 5.6 42 6.7 WNW 28 41 15 22 1017.6 1017.6 0.0
15/02:00pm 19.5 14.5 6.3 42 6.8 W 22 32 12 17 1017.9 1017.9 0.0
15/01:30pm 19.5 13.3 6.3 42 6.8 WNW 28 43 15 23 1017.8 1017.8 0.0
15/01:00pm 19.1 11.6 6.2 43 6.6 WNW 35 50 19 27 1018.2 1018.1 0.0
15/12:30pm 19.0 12.0 6.8 45 6.4 W 33 48 18 26 1018.7 1018.7 0.0
15/12:20pm 19.6 13.6 7.0 44 6.6 WNW 28 50 15 27 1018.7 1018.7 0.0
15/12:15pm 19.2 12.1 5.3 40 7.1 W 32 46 17 25 1019.0 1019.0 0.0
15/12:03pm 18.9 13.6 6.7 45 6.4 WNW 24 52 13 28 1019.1 1019.1 0.0
15/12:00pm 18.9 14.2 5.0 40 7.0 WNW 19 30 10 16 1019.4 1019.5 0.0
15/11:30am 18.5 13.6 3.9 38 7.2 NW 19 24 10 13 1019.6 1019.6 0.0
15/11:00am 17.2 10.6 2.0 36 7.1 NW 26 37 14 20 1019.9 1019.9 0.0
15/10:30am 16.1 10.0 0.3 34 7.1 NW 22 28 12 15 1020.4 1020.4 0.0
15/10:00am 16.5 9.2 0.2 33 7.3 NW 28 37 15 20 1020.7 1020.8 0.0
15/09:30am 15.2 8.7 0.2 36 6.7 NW 24 33 13 18 1021.0 1021.0 0.0
15/09:00am 13.9 7.1 -1.7 34 6.6 NW 24 33 13 18 1021.3 1021.3 0.0
15/08:30am 9.4 7.5 0.8 55 3.7 CALM 0 2 0 1 1021.6 1021.6 0.0
15/08:00am 8.3 5.1 -0.2 55 3.5 N 6 7 3 4 1021.6 1021.6 0.0
15/07:30am 7.1 4.0 1.2 66 2.5 N 7 13 4 7 1021.4 1021.4 0.0
15/07:00am 5.5 2.3 -0.5 65 2.4 NNW 6 7 3 4 1021.1 1021.1 0.0
15/06:30am 4.6 0.7 -1.2 66 2.2 NNW 9 13 5 7 1020.8 1020.9 0.0
15/06:00am 3.6 0.1 -1.0 72 1.8 NW 7 11 4 6 1020.5 1020.5 0.0
15/05:30am 3.0 -0.4 -0.8 76 1.5 NW 7 11 4 6 1020.2 1020.2 0.0
15/05:00am 2.7 -1.6 -1.5 74 1.6 NNW 11 13 6 7 1020.4 1020.4 0.0
15/04:30am 2.9 0.7 -1.3 74 1.6 CALM 0 6 0 3 1020.7 1020.8 0.0
15/04:00am 2.8 0.6 -1.9 71 1.7 CALM 0 0 0 0 1020.6 1020.7 0.0
15/03:30am 3.7 0.3 -2.3 65 2.2 N 6 7 3 4 1020.7 1020.8 0.0
15/03:00am 3.5 0.6 -1.1 72 1.8 W 4 9 2 5 1020.8 1020.9 0.0
15/02:30am 3.4 -0.1 -3.0 63 2.3 NNW 6 7 3 4 1021.2 1021.2 0.0
15/02:00am 3.3 -0.7 -2.4 66 2.1 NW 9 11 5 6 1021.0 1021.0 0.0
15/01:30am 2.9 -0.7 -2.2 69 1.9 WNW 7 9 4 5 1021.5 1021.5 0.0
15/01:00am 2.5 -1.0 -3.0 67 2.0 NW 6 6 3 3 1021.7 1021.8 0.0
15/12:30am 3.1 -0.4 -3.2 63 2.3 N 6 6 3 3 1021.8 1021.9 0.0
15/12:00am 3.8 0.2 -3.7 58 2.7 N 6 7 3 4 1022.1 1022.2 0.0
 
Date/Time
EST
Temp
°C
App
Temp
°C
Dew
Point
°C
Rel
Hum
%
Delta-T
°C
Wind Press
QNH
hPa
Press
MSL
hPa
Rain since
9am
mm
Dir  Spd
km/h
Gust
km/h
Spd
kts
Gust
kts
14/11:30pm 3.6 -0.2 -3.6 59 2.6 N 7 11 4 6 1022.1 1022.2 0.0
14/11:00pm 3.0 -1.1 -2.7 66 2.1 NNW 9 11 5 6 1022.0 1022.1 0.0
14/10:30pm 3.9 -0.1 -2.5 63 2.4 NNE 9 11 5 6 1022.2 1022.3 0.0
14/10:00pm 3.8 0.3 -1.5 68 2.0 NNW 7 11 4 6 1022.7 1022.7 0.0
14/09:30pm 3.8 0.3 -1.5 68 2.0 NNW 7 11 4 6 1022.9 1023.0 0.0
14/09:00pm 5.9 3.7 -1.3 60 2.8 CALM 0 0 0 0 1022.8 1022.8 0.0
14/08:30pm 6.4 4.3 -0.8 60 2.9 CALM 0 0 0 0 1023.0 1023.1 0.0
14/08:00pm 7.3 5.2 -1.1 55 3.3 CALM 0 0 0 0 1022.9 1023.0 0.0
14/07:30pm 7.0 4.8 -1.4 55 3.3 CALM 0 0 0 0 1023.0 1023.1 0.0
14/07:00pm 7.6 5.1 -1.1 54 3.5 W 2 4 1 2 1022.9 1023.0 0.0
14/06:30pm 8.7 5.2 -1.4 49 4.1 W 7 9 4 5 1022.7 1022.7 0.0
14/06:00pm 10.0 5.7 -1.7 44 4.7 WSW 11 13 6 7 1022.8 1022.8 0.0
14/05:30pm 11.8 7.0 -2.4 37 5.8 SW 13 19 7 10 1022.7 1022.7 0.0
14/05:00pm 13.4 7.2 -2.9 32 6.6 SW 20 28 11 15 1022.3 1022.4 0.0
14/04:30pm 14.2 7.2 -3.6 29 7.2 WSW 24 35 13 19 1022.1 1022.2 0.0
14/04:00pm 14.7 8.1 -3.1 29 7.3 WSW 22 28 12 15 1022.1 1022.2 0.0
14/03:30pm 15.0 7.6 -3.8 27 7.7 WSW 26 35 14 19 1021.9 1022.0 0.0
14/03:00pm 14.8 7.0 -3.5 28 7.5 SW 28 37 15 20 1021.9 1022.0 0.0
14/02:30pm 14.9 7.1 -3.4 28 7.5 SW 28 35 15 19 1022.0 1022.1 0.0
14/02:00pm 14.4 6.7 -2.9 30 7.1 SW 28 35 15 19 1022.0 1022.1 0.0
14/01:30pm 14.1 7.3 -1.9 33 6.7 WSW 24 39 13 21 1022.2 1022.3 0.0
14/01:00pm 13.4 5.9 -1.7 35 6.3 WSW 28 35 15 19 1022.7 1022.7 0.0
14/12:30pm 12.7 6.1 -0.5 40 5.6 WSW 24 35 13 19 1022.7 1022.7 0.0
14/12:00pm 12.1 6.2 1.4 48 4.7 WSW 22 30 12 16 1022.9 1023.0 0.0
14/11:30am 11.3 5.9 2.3 54 4.0 SW 20 28 11 15 1023.0 1023.1 0.0
14/11:00am 10.8 4.0 1.1 51 4.2 WSW 26 33 14 18 1023.2 1023.3 0.0
14/10:30am 9.9 2.8 1.5 56 3.7 WSW 28 33 15 18 1023.3 1023.4 0.0
14/10:00am 9.0 1.2 1.7 60 3.2 WSW 32 41 17 22 1023.4 1023.5 0.0
14/09:30am 8.1 -1.0 1.9 65 2.7 WSW 39 48 21 26 1023.4 1023.5 0.0
14/09:00am 8.0 -0.2 2.5 68 2.4 SW 35 46 19 25 1023.6 1023.7 0.0
14/08:30am 7.3 -0.4 2.2 70 2.2 WSW 32 41 17 22 1023.5 1023.6 0.0
14/08:00am 6.7 -0.3 2.2 73 1.9 WSW 28 41 15 22 1023.5 1023.6 0.0
14/07:32am 6.1 -1.2 2.2 76 1.7 WSW 30 50 16 27 1023.2 1023.3 0.0
14/07:30am 6.0 -1.7 2.1 76 1.7 WSW 32 50 17 27 1023.1 1023.2 0.0
14/07:00am 5.8 -1.6 1.9 76 1.6 WSW 30 44 16 24 1022.7 1022.7 0.0
14/06:30am 5.7 -0.9 1.8 76 1.6 WSW 26 37 14 20 1022.3 1022.4 0.0
14/06:00am 5.5 -0.8 1.8 77 1.6 WSW 24 46 13 25 1022.3 1022.4 0.0
14/05:47am 5.9 -1.1 1.8 75 1.7 WSW 28 46 15 25 1021.8 1021.9 0.0
14/05:30am 5.9 -2.1 1.8 75 1.7 WSW 33 48 18 26 1021.7 1021.8 0.0
14/05:00am 6.0 -0.6 2.3 77 1.6 WSW 26 41 14 22 1021.6 1021.6 0.0
14/04:30am 5.6 -0.2 2.3 79 1.4 WSW 22 30 12 16 1021.2 1021.2 0.0
14/04:00am 6.0 -1.9 2.3 77 1.6 WSW 33 46 18 25 1020.8 1020.9 0.0
14/03:30am 6.7 -2.6 2.8 76 1.7 WSW 41 50 22 27 1020.4 1020.4 0.0
14/03:00am 6.8 -0.7 3.6 80 1.4 WSW 32 43 17 23 1020.6 1020.7 0.0
14/02:30am 7.1 0.2 4.4 83 1.2 WSW 30 44 16 24 1020.6 1020.7 0.0
14/02:00am 6.9 1.1 4.2 83 1.2 SW 24 32 13 17 1020.8 1020.9 0.0
14/01:30am 6.9 1.7 3.7 80 1.4 SW 20 32 11 17 1021.0 1021.0 0.0
14/01:00am 6.4 1.7 3.0 79 1.5 SW 17 20 9 11 1021.0 1021.0 0.0
14/12:30am 7.1 2.0 3.3 77 1.7 SW 19 22 10 12 1020.6 1020.7 0.0
14/12:00am 7.8 2.8 3.8 76 1.8 WSW 19 24 10 13 1020.3 1020.3 0.0
 
Date/Time
EST
Temp
°C
App
Temp
°C
Dew
Point
°C
Rel
Hum
%
Delta-T
°C
Wind Press
QNH
hPa
Press
MSL
hPa
Rain since
9am
mm
Dir  Spd
km/h
Gust
km/h
Spd
kts
Gust
kts
13/11:30pm 4.3 2.2 3.9 97 0.2 SE 4 6 2 3 1020.6 1020.7 0.0
13/11:00pm 6.2 2.7 3.4 82 1.2 WSW 11 13 6 7 1020.3 1020.3 0.0
13/10:30pm 5.3 2.1 3.0 85 1.0 WSW 9 11 5 6 1020.4 1020.4 0.0
13/10:00pm 5.7 4.6 5.0 95 0.3 CALM 0 2 0 1 1020.6 1020.7 0.0
13/09:30pm 5.6 3.0 4.1 90 0.7 WSW 7 9 4 5 1020.8 1020.9 0.0
13/09:00pm 6.7 4.3 5.2 90 0.7 SSE 7 9 4 5 1020.8 1020.9 0.0
13/08:30pm 8.2 6.4 5.5 83 1.3 SSE 4 4 2 2 1020.6 1020.7 0.0
13/08:00pm 8.3 6.9 5.4 82 1.4 SSE 2 4 1 2 1020.6 1020.7 0.0
13/07:30pm 8.8 6.5 5.9 82 1.4 SSE 7 7 4 4 1020.6 1020.7 0.0
13/07:00pm 9.8 7.8 6.2 78 1.7 S 6 9 3 5 1020.3 1020.3 0.0
13/06:30pm 10.0 7.4 6.3 78 1.8 SSE 9 11 5 6 1020.0 1020.0 0.0
13/06:00pm 11.3 10.4 6.0 70 2.6 CALM 0 2 0 1 1019.9 1019.9 0.0
13/05:30pm 11.8 9.6 6.3 69 2.7 E 7 9 4 5 1019.9 1019.9 0.0
13/05:00pm 12.4 10.2 6.2 66 3.1 ESE 7 9 4 5 1020.2 1020.2 0.0
13/04:30pm 12.9 9.1 5.8 62 3.5 SE 15 19 8 10 1020.3 1020.3 0.0
13/04:00pm 13.4 8.2 5.6 59 3.8 SSE 22 28 12 15 1019.9 1019.9 0.0
13/03:30pm 17.0 11.6 -1.6 28 8.1 SSW 17 20 9 11 1019.7 1019.7 0.0
13/03:00pm 18.1 11.4 -3.9 22 9.2 SW 22 30 12 16 1019.4 1019.5 0.0
13/02:30pm 18.2 12.7 -2.1 25 8.8 SSW 17 24 9 13 1019.4 1019.5 0.0
13/02:00pm 18.8 15.1 -0.1 28 8.6 W 9 19 5 10 1019.1 1019.1 0.0
13/01:30pm 17.4 11.2 -2.8 25 8.6 W 20 28 11 15 1019.7 1019.7 0.0
13/01:00pm 17.3 12.7 -0.9 29 8.0 WNW 13 19 7 10 1020.2 1020.2 0.0
13/12:30pm 16.1 11.5 -1.0 31 7.5 WNW 13 20 7 11 1020.7 1020.8 0.0
13/12:00pm 15.8 11.4 0.4 35 6.9 W 13 20 7 11 1021.2 1021.2 0.0
13/11:30am 14.5 10.0 0.0 37 6.4 WNW 13 24 7 13 1021.7 1021.8 0.0
13/11:00am 13.2 9.6 3.0 50 4.7 NNW 11 19 6 10 1021.8 1021.9 0.0

Other formats

Comma delimited format used in spreadsheet applications
http://www.bom.gov.au/fwo/IDN60801/IDN60801.94929.axf

JavaScript Object Notation format (JSON) in row-major order
http://www.bom.gov.au/fwo/IDN60801/IDN60801.94929.json

Data quality

Most of these data are generated automatically and are frequently updated. Quality checks on data are not normally performed. It is possible for incorrect values to appear. Refer to information at About Latest Weather Observations and please check the disclaimer before using these data.